createdAt,value
2017-10-08T00:00:08.201Z,99891
2017-10-08T00:01:08.267Z,99884
2017-10-08T00:02:08.499Z,99892
2017-10-08T00:03:08.299Z,99893
2017-10-08T00:04:08.460Z,99883
2017-10-08T00:05:08.475Z,99891
2017-10-08T00:06:08.573Z,99894
2017-10-08T00:07:08.620Z,99895
2017-10-08T00:08:08.897Z,99894
2017-10-08T00:09:08.567Z,99885
2017-10-08T00:10:08.729Z,99896
2017-10-08T00:11:08.804Z,99895
2017-10-08T00:12:08.741Z,99895
2017-10-08T00:13:08.832Z,99899
2017-10-08T00:14:09.209Z,99903
2017-10-08T00:15:08.942Z,99901
2017-10-08T00:16:09.038Z,99901
2017-10-08T00:17:09.132Z,99902
2017-10-08T00:18:09.107Z,99907
2017-10-08T00:19:09.207Z,99908
2017-10-08T00:20:09.509Z,99910
2017-10-08T00:21:09.239Z,99910
2017-10-08T00:22:09.291Z,99903
2017-10-08T00:23:09.427Z,99913
2017-10-08T00:24:09.445Z,99912
2017-10-08T00:25:09.384Z,99913
2017-10-08T00:26:09.779Z,99913
2017-10-08T00:27:09.592Z,99914
2017-10-08T00:28:09.616Z,99914
2017-10-08T00:29:09.720Z,99914
2017-10-08T00:30:09.789Z,99916
2017-10-08T00:31:09.800Z,99919
2017-10-08T00:32:10.165Z,99920
2017-10-08T00:33:09.872Z,99921
2017-10-08T00:34:09.979Z,99919
2017-10-08T00:35:10.075Z,99919
2017-10-08T00:36:10.158Z,99920
2017-10-08T00:37:10.191Z,99922
2017-10-08T00:38:10.455Z,99921
2017-10-08T00:39:10.288Z,99925
2017-10-08T00:40:10.222Z,99927
2017-10-08T00:41:10.281Z,99928
2017-10-08T00:42:10.393Z,99926
2017-10-08T00:43:10.500Z,99924
2017-10-08T00:44:10.772Z,99928
2017-10-08T00:45:10.501Z,99921
2017-10-08T00:46:10.607Z,99931
2017-10-08T00:47:10.558Z,99932
2017-10-08T00:48:10.710Z,99929
2017-10-08T00:49:10.784Z,99929
2017-10-08T00:50:11.038Z,99936
2017-10-08T00:51:10.777Z,99932
2017-10-08T00:52:10.781Z,99933
2017-10-08T00:53:10.877Z,99933
2017-10-08T00:54:11.010Z,99931
2017-10-08T00:55:10.954Z,99940
2017-10-08T00:56:11.392Z,99941
2017-10-08T00:57:11.073Z,99939
2017-10-08T00:58:11.110Z,99941
2017-10-08T00:59:11.183Z,99945
2017-10-08T01:00:11.937Z,99946
2017-10-08T01:01:11.336Z,99943
2017-10-08T01:02:11.606Z,99947
2017-10-08T01:03:11.400Z,99943
2017-10-08T01:04:11.406Z,99941
2017-10-08T01:05:11.545Z,99938
2017-10-08T01:06:11.589Z,99937
2017-10-08T01:07:11.677Z,99941
2017-10-08T01:08:12.071Z,99939
2017-10-08T01:09:12.039Z,99941
2017-10-08T01:10:12.091Z,99938
2017-10-08T01:11:12.142Z,99941
2017-10-08T01:12:12.169Z,99941
2017-10-08T01:13:12.244Z,99936
2017-10-08T01:14:12.562Z,99939
2017-10-08T01:15:12.267Z,99938
2017-10-08T01:16:12.107Z,99941
2017-10-08T01:17:12.334Z,99936
2017-10-08T01:18:12.384Z,99941
2017-10-08T01:19:12.254Z,99937
2017-10-08T01:20:12.619Z,99937
2017-10-08T01:21:12.328Z,99935
2017-10-08T01:22:12.436Z,99931
2017-10-08T01:23:12.406Z,99936
2017-10-08T01:24:12.477Z,99939
2017-10-08T01:25:12.494Z,99942
2017-10-08T01:26:12.908Z,99939
2017-10-08T01:27:12.625Z,99938
2017-10-08T01:28:12.701Z,99940
2017-10-08T01:29:12.706Z,99932
2017-10-08T01:30:12.732Z,99940
2017-10-08T01:31:12.744Z,99940
2017-10-08T01:32:13.094Z,99945
2017-10-08T01:33:12.818Z,99941
2017-10-08T01:34:12.863Z,99943
2017-10-08T01:35:13.018Z,99946
2017-10-08T01:36:13.098Z,99952
2017-10-08T01:38:13.284Z,99946
2017-10-08T01:39:13.354Z,99945
2017-10-08T01:40:13.250Z,99945
2017-10-08T01:41:13.389Z,99946
2017-10-08T01:42:13.560Z,99949
2017-10-08T01:44:13.527Z,99945
2017-10-08T01:45:13.498Z,99948
2017-10-08T01:46:13.582Z,99945
2017-10-08T01:47:13.551Z,99950
2017-10-08T01:48:13.599Z,99950
2017-10-08T01:49:13.965Z,99949
2017-10-08T01:50:13.681Z,99946
2017-10-08T01:51:13.866Z,99946
2017-10-08T01:53:13.818Z,99947
2017-10-08T01:54:13.854Z,99948
2017-10-08T01:55:14.142Z,99947
2017-10-08T01:56:14.017Z,99948
2017-10-08T01:57:13.974Z,99950
2017-10-08T01:58:14.113Z,99951
2017-10-08T01:59:14.111Z,99955
2017-10-08T02:00:14.205Z,99946
2017-10-08T02:01:14.431Z,99954
2017-10-08T02:02:14.242Z,99945
2017-10-08T02:03:14.292Z,99954
2017-10-08T02:04:14.336Z,99945
2017-10-08T02:05:14.292Z,99949
2017-10-08T02:06:14.401Z,99948
2017-10-08T02:07:14.700Z,99950
2017-10-08T02:08:14.496Z,99947
2017-10-08T02:09:14.582Z,99949
2017-10-08T02:10:14.519Z,99950
2017-10-08T02:11:14.667Z,99949
2017-10-08T02:12:14.666Z,99947
2017-10-08T02:13:15.042Z,99955
2017-10-08T02:14:14.826Z,99952
2017-10-08T02:15:14.895Z,99952
2017-10-08T02:16:14.863Z,99953
2017-10-08T02:17:14.862Z,99957
2017-10-08T02:18:14.894Z,99951
2017-10-08T02:19:15.302Z,99955
2017-10-08T02:20:15.057Z,99956
2017-10-08T02:21:15.237Z,99953
2017-10-08T02:22:15.199Z,99956
2017-10-08T02:23:15.229Z,99956
2017-10-08T02:24:15.312Z,99960
2017-10-08T02:25:15.669Z,99955
2017-10-08T02:26:15.470Z,99959
2017-10-08T02:27:15.437Z,99963
2017-10-08T02:28:15.467Z,99962
2017-10-08T02:29:15.529Z,99961
2017-10-08T02:30:15.687Z,99965
2017-10-08T02:31:15.983Z,99960
2017-10-08T02:32:15.745Z,99963
2017-10-08T02:33:15.794Z,99971
2017-10-08T02:34:15.852Z,99968
2017-10-08T02:35:15.931Z,99974
2017-10-08T02:36:15.994Z,99972
2017-10-08T02:37:16.268Z,99971
2017-10-08T02:38:16.028Z,99976
2017-10-08T02:39:16.139Z,99975
2017-10-08T02:40:16.139Z,99970
2017-10-08T02:41:16.255Z,99969
2017-10-08T02:42:16.201Z,99972
2017-10-08T02:43:16.597Z,99976
2017-10-08T02:44:16.376Z,99974
2017-10-08T02:45:16.401Z,99972
2017-10-08T02:46:16.424Z,99975
2017-10-08T02:47:16.505Z,99974
2017-10-08T02:48:16.505Z,99972
2017-10-08T02:49:16.803Z,99974
2017-10-08T02:50:16.597Z,99972
2017-10-08T02:51:16.626Z,99968
2017-10-08T02:52:16.652Z,99972
2017-10-08T02:53:16.733Z,99978
2017-10-08T02:54:16.851Z,99980
2017-10-08T02:55:17.210Z,99983
2017-10-08T02:56:16.978Z,99980
2017-10-08T02:57:17.003Z,99978
2017-10-08T02:58:17.123Z,99981
2017-10-08T02:59:17.210Z,99982
2017-10-08T03:00:17.257Z,99980
2017-10-08T03:01:18.066Z,99986
2017-10-08T03:02:17.338Z,99988
2017-10-08T03:03:17.460Z,99985
2017-10-08T03:04:17.400Z,99987
2017-10-08T03:05:17.545Z,99980
2017-10-08T03:06:17.489Z,99991
2017-10-08T03:07:17.833Z,99995
2017-10-08T03:08:17.633Z,99990
2017-10-08T03:09:17.724Z,99991
2017-10-08T03:10:17.781Z,99990
2017-10-08T03:11:17.797Z,99992
2017-10-08T03:12:17.941Z,99993
2017-10-08T03:13:18.271Z,99990
2017-10-08T03:14:18.081Z,99994
2017-10-08T03:15:18.012Z,99990
2017-10-08T03:16:18.126Z,99997
2017-10-08T03:17:18.154Z,99998
2017-10-08T03:18:18.203Z,99997
2017-10-08T03:19:18.553Z,99998
2017-10-08T03:20:18.408Z,99993
2017-10-08T03:21:18.468Z,99996
2017-10-08T03:22:18.478Z,100001
2017-10-08T03:23:18.550Z,99998
2017-10-08T03:24:18.645Z,99999
2017-10-08T03:25:18.990Z,99999
2017-10-08T03:26:18.733Z,100003
2017-10-08T03:27:18.871Z,100004
2017-10-08T03:28:18.905Z,100001
2017-10-08T03:29:18.945Z,100009
2017-10-08T03:30:19.043Z,100008
2017-10-08T03:31:19.277Z,100009
2017-10-08T03:32:19.095Z,100011
2017-10-08T03:33:19.196Z,100008
2017-10-08T03:34:19.283Z,100009
2017-10-08T03:35:19.314Z,100005
2017-10-08T03:36:19.437Z,100009
2017-10-08T03:37:19.659Z,100007
2017-10-08T03:38:19.505Z,100011
2017-10-08T03:39:19.610Z,100008
2017-10-08T03:40:19.609Z,100008
2017-10-08T03:41:19.702Z,100009
2017-10-08T03:42:19.786Z,100010
2017-10-08T03:43:20.118Z,100012
2017-10-08T03:44:19.885Z,100010
2017-10-08T03:45:19.852Z,100015
2017-10-08T03:46:19.991Z,100008
2017-10-08T03:47:20.024Z,100016
2017-10-08T03:48:20.091Z,100019
2017-10-08T03:49:20.319Z,100016
2017-10-08T03:50:20.128Z,100023
2017-10-08T03:51:20.132Z,100019
2017-10-08T03:52:20.183Z,100013
2017-10-08T03:53:20.216Z,100015
2017-10-08T03:54:20.289Z,100019
2017-10-08T03:55:20.632Z,100017
2017-10-08T03:56:20.523Z,100016
2017-10-08T03:57:20.539Z,100023
2017-10-08T03:58:20.571Z,100024
2017-10-08T03:59:20.691Z,100022
2017-10-08T04:00:20.722Z,100024
2017-10-08T04:01:21.074Z,100023
2017-10-08T04:02:20.905Z,100026
2017-10-08T04:03:20.849Z,100022
2017-10-08T04:04:21.001Z,100024
2017-10-08T04:05:20.944Z,100027
2017-10-08T04:06:21.045Z,100025
2017-10-08T04:07:21.416Z,100033
2017-10-08T04:08:21.158Z,100033
2017-10-08T04:09:21.259Z,100036
2017-10-08T04:10:21.260Z,100035
2017-10-08T04:11:21.272Z,100039
2017-10-08T04:12:21.424Z,100032
2017-10-08T04:13:21.725Z,100032
2017-10-08T04:14:21.447Z,100034
2017-10-08T04:15:21.520Z,100037
2017-10-08T04:16:21.607Z,100038
2017-10-08T04:17:21.669Z,100039
2017-10-08T04:18:21.710Z,100040
2017-10-08T04:19:22.071Z,100043
2017-10-08T04:20:21.804Z,100035
2017-10-08T04:21:21.824Z,100042
2017-10-08T04:22:21.886Z,100040
2017-10-08T04:23:22.011Z,100044
2017-10-08T04:24:21.957Z,100042
2017-10-08T04:25:22.315Z,100037
2017-10-08T04:26:22.121Z,100040
2017-10-08T04:27:22.218Z,100044
2017-10-08T04:28:22.303Z,100046
2017-10-08T04:29:22.335Z,100038
2017-10-08T04:30:22.407Z,100040
2017-10-08T04:31:22.640Z,100042
2017-10-08T04:32:22.442Z,100046
2017-10-08T04:33:22.459Z,100044
2017-10-08T04:34:22.470Z,100040
2017-10-08T04:35:22.507Z,100050
2017-10-08T04:36:22.536Z,100047
2017-10-08T04:37:22.861Z,100044
2017-10-08T04:38:22.659Z,100045
2017-10-08T04:39:22.799Z,100050
2017-10-08T04:40:22.900Z,100044
2017-10-08T04:41:22.923Z,100045
2017-10-08T04:42:22.958Z,100048
2017-10-08T04:43:23.363Z,100047
2017-10-08T04:44:23.101Z,100050
2017-10-08T04:45:23.041Z,100050
2017-10-08T04:46:23.154Z,100052
2017-10-08T04:47:23.162Z,100052
2017-10-08T04:48:23.262Z,100055
2017-10-08T04:49:23.530Z,100051
2017-10-08T04:50:23.294Z,100057
2017-10-08T04:51:23.337Z,100052
2017-10-08T04:52:23.475Z,100063
2017-10-08T04:53:23.431Z,100057
2017-10-08T04:54:23.525Z,100055
2017-10-08T04:55:23.901Z,100061
2017-10-08T04:56:23.717Z,100064
2017-10-08T04:57:23.676Z,100066
2017-10-08T04:58:23.691Z,100063
2017-10-08T04:59:23.734Z,100062
2017-10-08T05:00:23.859Z,100061
2017-10-08T05:01:24.242Z,100063
2017-10-08T05:02:23.956Z,100064
2017-10-08T05:03:24.053Z,100063
2017-10-08T05:04:24.058Z,100062
2017-10-08T05:05:24.056Z,100064
2017-10-08T05:06:24.023Z,100065
2017-10-08T05:07:24.458Z,100067
2017-10-08T05:08:24.102Z,100066
2017-10-08T05:09:24.142Z,100065
2017-10-08T05:10:24.180Z,100065
2017-10-08T05:11:24.200Z,100061
2017-10-08T05:12:24.349Z,100061
2017-10-08T05:13:24.630Z,100061
2017-10-08T05:14:24.390Z,100055
2017-10-08T05:15:24.478Z,100066
2017-10-08T05:16:24.451Z,100066
2017-10-08T05:17:24.553Z,100062
2017-10-08T05:18:24.588Z,100063
2017-10-08T05:19:24.885Z,100069
2017-10-08T05:20:24.764Z,100060
2017-10-08T05:21:24.770Z,100065
2017-10-08T05:22:24.808Z,100066
2017-10-08T05:23:24.843Z,100061
2017-10-08T05:24:24.883Z,100063
2017-10-08T05:25:25.330Z,100067
2017-10-08T05:26:25.072Z,100063
2017-10-08T05:27:25.028Z,100069
2017-10-08T05:28:25.033Z,100070
2017-10-08T05:29:25.117Z,100069
2017-10-08T05:30:25.153Z,100073
2017-10-08T05:31:25.583Z,100079
2017-10-08T05:32:25.285Z,100069
2017-10-08T05:33:25.353Z,100072
2017-10-08T05:34:25.315Z,100073
2017-10-08T05:35:25.514Z,100075
2017-10-08T05:36:25.394Z,100077
2017-10-08T05:37:25.709Z,100081
2017-10-08T05:38:25.533Z,100074
2017-10-08T05:39:25.629Z,100081
2017-10-08T05:40:25.663Z,100078
2017-10-08T05:42:25.761Z,100079
2017-10-08T05:43:26.151Z,100085
2017-10-08T05:44:25.976Z,100089
2017-10-08T05:45:26.005Z,100086
2017-10-08T05:46:26.019Z,100088
2017-10-08T05:47:26.130Z,100095
2017-10-08T05:48:26.160Z,100095
2017-10-08T05:49:26.393Z,100098
2017-10-08T05:50:26.183Z,100097
2017-10-08T05:51:26.296Z,100098
2017-10-08T05:52:26.235Z,100100
2017-10-08T05:53:26.327Z,100096
2017-10-08T05:54:26.285Z,100100
2017-10-08T05:55:26.654Z,100102
2017-10-08T05:56:26.417Z,100098
2017-10-08T05:57:26.467Z,100093
2017-10-08T05:58:26.511Z,100102
2017-10-08T05:59:26.585Z,100099
2017-10-08T06:00:26.658Z,100096
2017-10-08T06:01:27.079Z,100097
2017-10-08T06:02:26.743Z,100103
2017-10-08T06:03:26.772Z,100104
2017-10-08T06:04:26.783Z,100104
2017-10-08T06:05:26.807Z,100110
2017-10-08T06:06:26.956Z,100109
2017-10-08T06:07:27.253Z,100117
2017-10-08T06:08:27.085Z,100110
2017-10-08T06:09:27.079Z,100110
2017-10-08T06:10:27.109Z,100116
2017-10-08T06:11:27.137Z,100118
2017-10-08T06:12:27.269Z,100115
2017-10-08T06:13:27.566Z,100123
2017-10-08T06:14:27.381Z,100119
2017-10-08T06:15:27.314Z,100124
2017-10-08T06:16:27.408Z,100125
2017-10-08T06:17:27.372Z,100125
2017-10-08T06:18:27.413Z,100127
2017-10-08T06:19:27.817Z,100130
2017-10-08T06:20:27.485Z,100131
2017-10-08T06:21:27.528Z,100130
2017-10-08T06:22:27.578Z,100135
2017-10-08T06:23:27.641Z,100132
2017-10-08T06:24:27.718Z,100132
2017-10-08T06:25:28.071Z,100139
2017-10-08T06:26:27.860Z,100138
2017-10-08T06:27:27.811Z,100143
2017-10-08T06:28:27.876Z,100142
2017-10-08T06:29:27.949Z,100141
2017-10-08T06:30:28.015Z,100140
2017-10-08T06:31:28.372Z,100144
2017-10-08T06:32:28.092Z,100146
2017-10-08T06:33:28.098Z,100148
2017-10-08T06:34:28.226Z,100142
2017-10-08T06:35:28.252Z,100146
2017-10-08T06:36:28.349Z,100150
2017-10-08T06:37:28.611Z,100147
2017-10-08T06:38:28.294Z,100150
2017-10-08T06:39:28.405Z,100142
2017-10-08T06:40:28.411Z,100148
2017-10-08T06:41:28.438Z,100146
2017-10-08T06:42:28.510Z,100145
2017-10-08T06:43:28.829Z,100151
2017-10-08T06:44:28.704Z,100146
2017-10-08T06:45:28.777Z,100151
2017-10-08T06:46:28.749Z,100153
2017-10-08T06:47:28.787Z,100149
2017-10-08T06:48:28.914Z,100149
2017-10-08T06:49:29.184Z,100150
2017-10-08T06:50:28.993Z,100151
2017-10-08T06:51:29.033Z,100155
2017-10-08T06:52:29.072Z,100160
2017-10-08T06:53:29.037Z,100158
2017-10-08T06:54:29.033Z,100160
2017-10-08T06:55:29.299Z,100159
2017-10-08T06:56:29.056Z,100157
2017-10-08T06:57:29.099Z,100157
2017-10-08T06:58:29.220Z,100154
2017-10-08T06:59:29.262Z,100159
2017-10-08T07:00:29.391Z,100162
2017-10-08T07:01:29.732Z,100159
2017-10-08T07:02:29.482Z,100168
2017-10-08T07:03:29.582Z,100164
2017-10-08T07:04:29.692Z,100165
2017-10-08T07:05:29.696Z,100168
2017-10-08T07:06:29.742Z,100162
2017-10-08T07:07:30.129Z,100169
2017-10-08T07:08:29.893Z,100174
2017-10-08T07:09:29.974Z,100173
2017-10-08T07:10:30.056Z,100177
2017-10-08T07:11:30.098Z,100175
2017-10-08T07:12:30.465Z,100175
2017-10-08T07:13:30.149Z,100176
2017-10-08T07:14:30.243Z,100177
2017-10-08T07:15:30.404Z,100179
2017-10-08T07:16:30.445Z,100180
2017-10-08T07:17:30.590Z,100182
2017-10-08T07:18:30.788Z,100185
2017-10-08T07:19:30.628Z,100181
2017-10-08T07:20:30.659Z,100179
2017-10-08T07:21:30.689Z,100186
2017-10-08T07:22:30.723Z,100185
2017-10-08T07:23:30.826Z,100185
2017-10-08T07:24:31.040Z,100191
2017-10-08T07:25:30.940Z,100191
2017-10-08T07:26:30.892Z,100187
2017-10-08T07:27:30.946Z,100183
2017-10-08T07:28:30.974Z,100189
2017-10-08T07:29:31.018Z,100195
2017-10-08T07:30:31.427Z,100187
2017-10-08T07:31:31.234Z,100188
2017-10-08T07:32:31.283Z,100195
2017-10-08T07:33:31.358Z,100190
2017-10-08T07:34:31.360Z,100198
2017-10-08T07:35:31.454Z,100195
2017-10-08T07:36:31.744Z,100196
2017-10-08T07:37:31.545Z,100197
2017-10-08T07:38:31.522Z,100196
2017-10-08T07:39:31.656Z,100198
2017-10-08T07:40:31.666Z,100196
2017-10-08T07:41:31.766Z,100195
2017-10-08T07:42:32.087Z,100196
2017-10-08T07:43:31.854Z,100196
2017-10-08T07:44:32.005Z,100198
2017-10-08T07:45:31.948Z,100203
2017-10-08T07:46:32.054Z,100203
2017-10-08T07:47:32.348Z,100205
2017-10-08T07:48:32.235Z,100207
2017-10-08T07:49:32.335Z,100210
2017-10-08T07:50:32.366Z,100210
2017-10-08T07:51:32.502Z,100213
2017-10-08T07:52:32.539Z,100214
2017-10-08T07:53:32.829Z,100218
2017-10-08T07:54:32.621Z,100217
2017-10-08T07:55:32.585Z,100220
2017-10-08T07:56:32.640Z,100216
2017-10-08T07:57:32.754Z,100221
2017-10-08T07:58:32.758Z,100221
2017-10-08T07:59:32.977Z,100221
2017-10-08T08:00:32.821Z,100224
2017-10-08T08:01:32.775Z,100220
2017-10-08T08:02:32.840Z,100225
2017-10-08T08:03:32.899Z,100220
2017-10-08T08:04:33.049Z,100226
2017-10-08T08:05:33.307Z,100220
2017-10-08T08:06:33.074Z,100228
2017-10-08T08:07:33.227Z,100232
2017-10-08T08:08:33.177Z,100233
2017-10-08T08:09:33.278Z,100225
2017-10-08T08:10:33.342Z,100233
2017-10-08T08:11:33.754Z,100234
2017-10-08T08:12:33.453Z,100236
2017-10-08T08:13:33.549Z,100231
2017-10-08T08:14:33.624Z,100235
2017-10-08T08:15:33.652Z,100238
2017-10-08T08:16:33.697Z,100243
2017-10-08T08:17:34.026Z,100242
2017-10-08T08:18:33.855Z,100246
2017-10-08T08:19:33.940Z,100245
2017-10-08T08:20:33.940Z,100250
2017-10-08T08:21:33.998Z,100248
2017-10-08T08:22:34.097Z,100250
2017-10-08T08:23:34.300Z,100254
2017-10-08T08:24:34.117Z,100251
2017-10-08T08:25:34.122Z,100248
2017-10-08T08:26:34.156Z,100249
2017-10-08T08:27:34.273Z,100251
2017-10-08T08:28:34.327Z,100260
2017-10-08T08:29:34.659Z,100258
2017-10-08T08:30:34.461Z,100254
2017-10-08T08:31:34.469Z,100264
2017-10-08T08:32:34.548Z,100259
2017-10-08T08:33:34.595Z,100263
2017-10-08T08:34:34.648Z,100262
2017-10-08T08:35:34.944Z,100259
2017-10-08T08:36:34.720Z,100275
2017-10-08T08:37:34.857Z,100273
2017-10-08T08:38:34.859Z,100274
2017-10-08T08:39:34.985Z,100283
2017-10-08T08:40:34.996Z,100277
2017-10-08T08:41:35.368Z,100280
2017-10-08T08:42:35.064Z,100285
2017-10-08T08:43:35.121Z,100280
2017-10-08T08:44:35.156Z,100278
2017-10-08T08:45:35.259Z,100279
2017-10-08T08:46:35.196Z,100281
2017-10-08T08:47:35.601Z,100285
2017-10-08T08:48:35.423Z,100292
2017-10-08T08:49:35.439Z,100293
2017-10-08T08:50:35.452Z,100294
2017-10-08T08:51:35.519Z,100295
2017-10-08T08:52:35.486Z,100294
2017-10-08T08:53:35.803Z,100301
2017-10-08T08:54:35.649Z,100308
2017-10-08T08:55:35.604Z,100304
2017-10-08T08:56:35.642Z,100305
2017-10-08T08:57:35.742Z,100311
2017-10-08T08:58:35.681Z,100314
2017-10-08T08:59:36.066Z,100316
2017-10-08T09:00:35.894Z,100317
2017-10-08T09:01:35.916Z,100318
2017-10-08T09:02:35.991Z,100321
2017-10-08T09:03:36.115Z,100322
2017-10-08T09:04:36.455Z,100322
2017-10-08T09:05:36.241Z,100322
2017-10-08T09:06:36.270Z,100326
2017-10-08T09:07:36.345Z,100317
2017-10-08T09:08:36.382Z,100326
2017-10-08T09:09:36.485Z,100330
2017-10-08T09:10:36.779Z,100332
2017-10-08T09:11:36.580Z,100333
2017-10-08T09:12:36.551Z,100331
2017-10-08T09:13:36.616Z,100332
2017-10-08T09:14:36.628Z,100337
2017-10-08T09:15:36.706Z,100337
2017-10-08T09:16:37.074Z,100336
2017-10-08T09:17:36.769Z,100334
2017-10-08T09:18:36.800Z,100342
2017-10-08T09:19:36.908Z,100344
2017-10-08T09:20:36.942Z,100340
2017-10-08T09:21:37.061Z,100346
2017-10-08T09:22:37.416Z,100345
2017-10-08T09:23:37.177Z,100348
2017-10-08T09:24:37.181Z,100350
2017-10-08T09:25:37.299Z,100353
2017-10-08T09:26:37.236Z,100355
2017-10-08T09:27:37.355Z,100354
2017-10-08T09:28:37.587Z,100354
2017-10-08T09:29:37.369Z,100355
2017-10-08T09:30:37.532Z,100361
2017-10-08T09:31:37.462Z,100363
2017-10-08T09:32:37.583Z,100360
2017-10-08T09:33:37.653Z,100359
2017-10-08T09:34:37.867Z,100358
2017-10-08T09:35:37.635Z,100360
2017-10-08T09:36:37.770Z,100354
2017-10-08T09:37:37.857Z,100351
2017-10-08T09:38:37.957Z,100360
2017-10-08T09:39:37.989Z,100359
2017-10-08T09:40:38.295Z,100361
2017-10-08T09:41:38.053Z,100360
2017-10-08T09:42:38.142Z,100361
2017-10-08T09:43:38.172Z,100360
2017-10-08T09:44:38.217Z,100367
2017-10-08T09:45:38.356Z,100370
2017-10-08T09:46:38.665Z,100372
2017-10-08T09:47:38.426Z,100369
2017-10-08T09:48:38.504Z,100366
2017-10-08T09:49:38.449Z,100368
2017-10-08T09:50:38.522Z,100369
2017-10-08T09:51:38.560Z,100369
2017-10-08T09:52:38.853Z,100368
2017-10-08T09:53:38.698Z,100368
2017-10-08T09:54:38.773Z,100372
2017-10-08T09:55:38.800Z,100375
2017-10-08T09:56:38.834Z,100377
2017-10-08T09:57:38.950Z,100381
2017-10-08T09:58:39.273Z,100376
2017-10-08T09:59:38.915Z,100376
2017-10-08T10:00:38.962Z,100376
2017-10-08T10:01:38.975Z,100374
2017-10-08T10:02:39.124Z,100385
2017-10-08T10:03:39.162Z,100382
2017-10-08T10:04:39.482Z,100384
2017-10-08T10:05:39.176Z,100381
2017-10-08T10:06:39.275Z,100381
2017-10-08T10:07:39.307Z,100380
2017-10-08T10:08:39.440Z,100387
2017-10-08T10:09:39.525Z,100384
2017-10-08T10:10:39.856Z,100382
2017-10-08T10:11:39.659Z,100380
2017-10-08T10:12:39.594Z,100381
2017-10-08T10:13:39.719Z,100381
2017-10-08T10:14:39.819Z,100381
2017-10-08T10:15:39.833Z,100378
2017-10-08T10:16:40.057Z,100374
2017-10-08T10:17:39.811Z,100376
2017-10-08T10:18:39.911Z,100372
2017-10-08T10:19:40.016Z,100377
2017-10-08T10:20:40.100Z,100379
2017-10-08T10:21:40.045Z,100379
2017-10-08T10:22:40.373Z,100378
2017-10-08T10:23:40.086Z,100380
2017-10-08T10:24:40.189Z,100382
2017-10-08T10:25:40.140Z,100387
2017-10-08T10:26:40.247Z,100386
2017-10-08T10:27:40.287Z,100385
2017-10-08T10:28:40.585Z,100389
2017-10-08T10:29:40.229Z,100383
2017-10-08T10:30:40.268Z,100387
2017-10-08T10:31:40.398Z,100387
2017-10-08T10:32:40.354Z,100388
2017-10-08T10:33:40.471Z,100386
2017-10-08T10:34:40.792Z,100389
2017-10-08T10:35:40.522Z,100390
2017-10-08T10:36:40.534Z,100388
2017-10-08T10:37:40.513Z,100387
2017-10-08T10:38:40.568Z,100389
2017-10-08T10:39:40.647Z,100389
2017-10-08T10:40:41.001Z,100395
2017-10-08T10:41:40.736Z,100391
2017-10-08T10:42:40.762Z,100388
2017-10-08T10:43:40.810Z,100390
2017-10-08T10:44:40.908Z,100395
2017-10-08T10:45:40.909Z,100396
2017-10-08T10:46:41.206Z,100394
2017-10-08T10:47:41.013Z,100399
2017-10-08T10:48:41.036Z,100396
2017-10-08T10:49:41.044Z,100401
2017-10-08T10:50:40.981Z,100404
2017-10-08T10:51:41.088Z,100404
2017-10-08T10:52:41.371Z,100408
2017-10-08T10:53:41.261Z,100408
2017-10-08T10:54:41.273Z,100412
2017-10-08T10:55:41.304Z,100413
2017-10-08T10:56:41.248Z,100413
2017-10-08T10:57:41.244Z,100411
2017-10-08T10:58:41.537Z,100412
2017-10-08T10:59:41.447Z,100417
2017-10-08T11:00:41.486Z,100418
2017-10-08T11:02:41.592Z,100416
2017-10-08T11:03:41.596Z,100422
2017-10-08T11:04:41.863Z,100423
2017-10-08T11:05:41.676Z,100421
2017-10-08T11:06:41.613Z,100420
2017-10-08T11:07:41.705Z,100417
2017-10-08T11:08:41.818Z,100429
2017-10-08T11:09:41.823Z,100428
2017-10-08T11:10:42.205Z,100425
2017-10-08T11:11:42.005Z,100431
2017-10-08T11:12:41.942Z,100431
2017-10-08T11:13:42.057Z,100433
2017-10-08T11:14:41.985Z,100432
2017-10-08T11:15:42.028Z,100436
2017-10-08T11:16:42.339Z,100432
2017-10-08T11:17:42.094Z,100435
2017-10-08T11:18:42.267Z,100436
2017-10-08T11:19:42.331Z,100438
2017-10-08T11:20:42.338Z,100439
2017-10-08T11:21:42.346Z,100440
2017-10-08T11:22:42.644Z,100446
2017-10-08T11:23:42.488Z,100448
2017-10-08T11:24:42.577Z,100442
2017-10-08T11:25:42.634Z,100442
2017-10-08T11:26:42.600Z,100440
2017-10-08T11:27:42.683Z,100439
2017-10-08T11:28:43.112Z,100443
2017-10-08T11:29:42.943Z,100440
2017-10-08T11:30:42.877Z,100440
2017-10-08T11:31:42.960Z,100443
2017-10-08T11:32:42.996Z,100446
2017-10-08T11:33:43.000Z,100440
2017-10-08T11:34:43.291Z,100445
2017-10-08T11:35:43.111Z,100449
2017-10-08T11:36:43.071Z,100446
2017-10-08T11:37:43.163Z,100443
2017-10-08T11:38:43.206Z,100444
2017-10-08T11:39:43.177Z,100440
2017-10-08T11:40:43.467Z,100446
2017-10-08T11:41:43.297Z,100443
2017-10-08T11:42:43.334Z,100444
2017-10-08T11:43:43.391Z,100443
2017-10-08T11:44:43.461Z,100446
2017-10-08T11:45:43.563Z,100446
2017-10-08T11:46:43.864Z,100447
2017-10-08T11:47:43.685Z,100446
2017-10-08T11:48:43.727Z,100449
2017-10-08T11:49:43.758Z,100450
2017-10-08T11:50:43.856Z,100449
2017-10-08T11:51:43.821Z,100447
2017-10-08T11:52:44.231Z,100451
2017-10-08T11:53:43.901Z,100452
2017-10-08T11:54:43.966Z,100453
2017-10-08T11:55:43.980Z,100448
2017-10-08T11:56:44.009Z,100454
2017-10-08T11:57:44.018Z,100453
2017-10-08T11:58:44.415Z,100453
2017-10-08T11:59:44.139Z,100453
2017-10-08T12:00:44.231Z,100453
2017-10-08T12:01:44.266Z,100446
2017-10-08T12:02:44.348Z,100454
2017-10-08T12:03:44.341Z,100450
2017-10-08T12:04:44.694Z,100453
2017-10-08T12:05:44.468Z,100447
2017-10-08T12:06:44.517Z,100450
2017-10-08T12:07:44.607Z,100448
2017-10-08T12:08:44.750Z,100450
2017-10-08T12:09:44.786Z,100451
2017-10-08T12:10:45.025Z,100448
2017-10-08T12:11:44.766Z,100449
2017-10-08T12:12:44.903Z,100445
2017-10-08T12:13:44.898Z,100447
2017-10-08T12:14:45.020Z,100446
2017-10-08T12:15:44.992Z,100443
2017-10-08T12:16:45.335Z,100444
2017-10-08T12:17:45.142Z,100446
2017-10-08T12:18:45.176Z,100445
2017-10-08T12:19:45.306Z,100449
2017-10-08T12:20:45.242Z,100448
2017-10-08T12:21:45.343Z,100447
2017-10-08T12:22:45.613Z,100444
2017-10-08T12:23:45.298Z,100447
2017-10-08T12:24:45.371Z,100447
2017-10-08T12:25:45.309Z,100446
2017-10-08T12:26:45.420Z,100449
2017-10-08T12:27:45.362Z,100449
2017-10-08T12:28:45.618Z,100451
2017-10-08T12:29:45.469Z,100449
2017-10-08T12:30:45.547Z,100445
2017-10-08T12:31:45.664Z,100451
2017-10-08T12:32:45.615Z,100447
2017-10-08T12:33:45.709Z,100450
2017-10-08T12:34:45.936Z,100449
2017-10-08T12:35:45.664Z,100444
2017-10-08T12:36:45.772Z,100450
2017-10-08T12:37:45.803Z,100447
2017-10-08T12:38:45.859Z,100448
2017-10-08T12:39:45.937Z,100452